Time;durP1;ratioP1;P1;durP2;ratioP2;P2;SDS_P1;SDS_P2;PMS_P1;PMS_P2;Temp;Humidity;BMP_temperature;BMP_pressure;BME280_temperature;BME280_humidity;BME280_pressure;Samples;Min_cycle;Max_cycle;Signal;HPM_P1;HPM_P2
2023/07/18 00:03:44;;;;;;;2.47;2.17;;;21.10;73.40;;;;;;10320797;28;20257;-80
2023/07/18 00:08:47;;;;;;;3.70;2.20;;;21.10;73.80;;;;;;10318050;28;20224;-81
2023/07/18 00:13:50;;;;;;;2.30;2.10;;;21.10;73.40;;;;;;10319707;28;20262;-80
2023/07/18 00:18:53;;;;;;;1.97;1.87;;;21.10;73.20;;;;;;10327817;28;20231;-80
2023/07/18 00:23:58;;;;;;;1.80;1.70;;;21.00;73.50;;;;;;10333051;28;20247;-81
2023/07/18 00:29:00;;;;;;;3.93;2.10;;;21.10;73.00;;;;;;10333301;28;20334;-81
2023/07/18 00:34:03;;;;;;;2.47;2.03;;;21.00;73.00;;;;;;10335923;28;20592;-79
2023/07/18 00:39:07;;;;;;;2.60;2.30;;;21.00;73.60;;;;;;10347010;28;20782;-79
2023/07/18 00:44:09;;;;;;;3.57;2.27;;;20.90;72.80;;;;;;10329314;28;20303;-80
2023/07/18 00:49:12;;;;;;;2.43;2.23;;;20.90;71.40;;;;;;10327435;28;20251;-80
2023/07/18 00:54:16;;;;;;;2.40;2.30;;;20.80;72.00;;;;;;10319002;28;20358;-80
2023/07/18 00:59:19;;;;;;;2.30;2.10;;;20.70;71.80;;;;;;10329767;28;20227;-80
2023/07/18 01:04:21;;;;;;;2.63;2.43;;;20.70;73.10;;;;;;10335843;28;20238;-80
2023/07/18 01:09:25;;;;;;;2.63;2.40;;;20.70;73.80;;;;;;10338398;28;20207;-81
2023/07/18 01:14:27;;;;;;;2.73;1.90;;;20.70;75.10;;;;;;10322774;28;20298;-81
2023/07/18 01:19:29;;;;;;;2.53;2.33;;;20.70;74.20;;;;;;10321116;28;20310;-82
2023/07/18 01:24:32;;;;;;;2.60;2.17;;;20.70;74.70;;;;;;10309490;28;20756;-80
2023/07/18 01:29:34;;;;;;;3.00;2.10;;;20.60;74.20;;;;;;10316443;28;20237;-82
2023/07/18 01:34:36;;;;;;;1.90;1.80;;;20.60;74.30;;;;;;10336947;28;20228;-79
2023/07/18 01:39:40;;;;;;;2.37;2.20;;;20.50;75.20;;;;;;10325767;28;20342;-81
2023/07/18 01:44:43;;;;;;;2.43;2.23;;;20.50;75.00;;;;;;10322950;28;20988;-80
2023/07/18 01:49:45;;;;;;;2.57;2.30;;;20.50;76.00;;;;;;10314941;28;20204;-81
2023/07/18 01:54:49;;;;;;;2.30;2.10;;;20.40;75.20;;;;;;10315139;23;20235;-75
2023/07/18 01:59:51;;;;;;;2.30;2.10;;;20.40;75.80;;;;;;10294103;28;20274;-76
2023/07/18 02:04:53;;;;;;;3.47;2.20;;;20.40;75.80;;;;;;10270622;28;20232;-76
2023/07/18 02:09:56;;;;;;;6.10;1.90;;;20.30;75.60;;;;;;10251397;28;20222;-75
2023/07/18 02:14:58;;;;;;;2.10;2.00;;;20.30;76.10;;;;;;10265374;28;20224;-77
2023/07/18 02:20:05;;;;;;;1.83;1.73;;;20.30;75.80;;;;;;10249492;28;20742;-76
2023/07/18 02:25:10;;;;;;;2.97;2.40;;;20.20;75.10;;;;;;10258374;28;20251;-77
2023/07/18 02:30:13;;;;;;;2.53;2.27;;;20.20;77.10;;;;;;10251353;28;20204;-77
2023/07/18 02:35:17;;;;;;;2.50;2.30;;;20.10;76.60;;;;;;10251722;28;20219;-76
2023/07/18 02:40:21;;;;;;;2.30;2.20;;;20.10;75.90;;;;;;10254472;28;20283;-76
2023/07/18 02:45:23;;;;;;;3.17;2.30;;;20.00;77.20;;;;;;10264797;28;20213;-76
2023/07/18 02:50:26;;;;;;;2.50;2.30;;;20.00;77.30;;;;;;10263685;28;20609;-76
2023/07/18 02:55:29;;;;;;;2.20;2.00;;;19.90;77.40;;;;;;10266642;28;20295;-76
2023/07/18 03:00:33;;;;;;;4.07;2.10;;;19.90;77.80;;;;;;10248336;28;20287;-76
2023/07/18 03:05:37;;;;;;;2.37;2.17;;;19.80;77.40;;;;;;10269253;28;20208;-75
2023/07/18 03:10:42;;;;;;;4.80;2.17;;;19.80;77.20;;;;;;10263119;28;20482;-76
2023/07/18 03:15:44;;;;;;;2.50;2.30;;;19.80;77.80;;;;;;10262446;28;20264;-76
2023/07/18 03:20:46;;;;;;;3.27;2.63;;;19.80;78.20;;;;;;10256525;28;20351;-76
2023/07/18 03:25:49;;;;;;;3.63;2.30;;;19.70;77.80;;;;;;10259398;28;20263;-76
2023/07/18 03:30:52;;;;;;;2.63;2.40;;;19.70;77.60;;;;;;10264884;28;20223;-76
2023/07/18 03:35:54;;;;;;;2.40;2.20;;;19.60;77.90;;;;;;10266400;28;20585;-76
2023/07/18 03:40:58;;;;;;;2.60;2.30;;;19.70;77.90;;;;;;10264471;28;20236;-76
2023/07/18 03:46:03;;;;;;;3.00;2.20;;;19.60;77.00;;;;;;10246184;28;20603;-76
2023/07/18 03:51:05;;;;;;;2.27;2.07;;;19.50;77.40;;;;;;10267950;28;20299;-76
2023/07/18 03:56:09;;;;;;;2.97;2.30;;;19.50;78.50;;;;;;10273005;28;20219;-76
2023/07/18 04:01:11;;;;;;;2.13;2.00;;;19.40;78.90;;;;;;10266463;28;20328;-76
2023/07/18 04:06:13;;;;;;;2.77;2.50;;;19.50;78.70;;;;;;10267092;28;20406;-76
2023/07/18 04:11:17;;;;;;;4.00;2.87;;;19.50;78.60;;;;;;10255552;28;20237;-77
2023/07/18 04:16:19;;;;;;;2.83;2.10;;;19.50;77.90;;;;;;10267737;28;20322;-77
2023/07/18 04:21:21;;;;;;;4.00;2.70;;;19.50;79.20;;;;;;10274370;28;20371;-76
2023/07/18 04:26:25;;;;;;;3.07;2.17;;;19.50;79.00;;;;;;10263542;28;20593;-76
2023/07/18 04:31:27;;;;;;;3.10;2.47;;;19.50;79.60;;;;;;10253199;28;20224;-76
2023/07/18 04:36:29;;;;;;;2.33;2.23;;;19.50;79.30;;;;;;10260377;28;20208;-76
2023/07/18 04:41:32;;;;;;;5.53;2.70;;;19.50;79.80;;;;;;10251641;28;20246;-76
2023/07/18 04:46:34;;;;;;;2.80;2.60;;;19.60;79.80;;;;;;10267929;28;20958;-77
2023/07/18 04:51:36;;;;;;;2.30;2.13;;;19.60;79.60;;;;;;10270147;28;20256;-76
2023/07/18 04:56:40;;;;;;;2.70;2.50;;;19.50;78.80;;;;;;10269375;28;20216;-76
2023/07/18 05:01:42;;;;;;;3.60;2.90;;;19.50;79.40;;;;;;10263891;28;20319;-76
2023/07/18 05:06:45;;;;;;;2.70;2.50;;;19.50;81.10;;;;;;10270308;28;21558;-76
2023/07/18 05:11:48;;;;;;;5.57;3.70;;;19.60;82.10;;;;;;10265329;28;20274;-76
2023/07/18 05:16:50;;;;;;;4.03;3.13;;;19.60;82.90;;;;;;10265937;28;20279;-76
2023/07/18 05:21:52;;;;;;;8.93;3.27;;;19.70;83.00;;;;;;10272565;28;20604;-76
2023/07/18 05:26:56;;;;;;;3.50;3.17;;;19.80;82.70;;;;;;10265576;28;20207;-75
2023/07/18 05:31:58;;;;;;;5.70;3.50;;;19.80;83.60;;;;;;10268096;28;20235;-74
2023/07/18 05:37:01;;;;;;;3.80;3.43;;;19.90;83.70;;;;;;10268824;28;20245;-76
2023/07/18 05:42:05;;;;;;;3.83;3.40;;;19.90;84.40;;;;;;10248390;28;20224;-76
2023/07/18 05:47:07;;;;;;;7.57;4.33;;;19.90;84.30;;;;;;10265595;28;20200;-76
2023/07/18 05:52:10;;;;;;;5.60;4.47;;;20.00;84.40;;;;;;10265969;28;20238;-76
2023/07/18 05:57:14;;;;;;;5.93;4.87;;;20.10;85.00;;;;;;10252084;28;20283;-76
2023/07/18 06:02:16;;;;;;;5.77;4.33;;;20.10;85.00;;;;;;10267647;28;20431;-76
2023/07/18 06:07:18;;;;;;;6.90;3.70;;;20.20;85.40;;;;;;10270499;28;20213;-76
2023/07/18 06:12:22;;;;;;;4.60;4.10;;;20.30;85.90;;;;;;10272462;28;20228;-76
2023/07/18 06:17:24;;;;;;;7.00;3.83;;;20.40;85.30;;;;;;10270048;28;20217;-75
2023/07/18 06:22:26;;;;;;;6.10;4.93;;;20.50;86.20;;;;;;10268200;28;20228;-75
2023/07/18 06:27:31;;;;;;;4.50;3.83;;;20.60;86.30;;;;;;10269173;28;20212;-76
2023/07/18 06:32:33;;;;;;;4.00;3.70;;;20.80;85.10;;;;;;10252258;28;21274;-76
2023/07/18 06:37:35;;;;;;;8.57;3.70;;;20.90;85.40;;;;;;10269811;28;20637;-76
2023/07/18 06:42:38;;;;;;;4.90;3.73;;;21.10;85.30;;;;;;10270475;28;20228;-76
2023/07/18 06:47:40;;;;;;;3.83;3.53;;;21.40;84.10;;;;;;10268905;28;20200;-76
2023/07/18 06:52:42;;;;;;;3.70;3.40;;;21.80;83.30;;;;;;10268121;28;20247;-76
2023/07/18 06:57:46;;;;;;;3.93;3.60;;;22.10;82.80;;;;;;10269331;28;20574;-76
2023/07/18 07:02:48;;;;;;;9.50;7.20;;;22.40;82.70;;;;;;10271650;28;20252;-76
2023/07/18 07:07:51;;;;;;;3.30;3.00;;;22.70;80.00;;;;;;10267808;28;20204;-76
2023/07/18 07:12:55;;;;;;;4.57;3.20;;;22.90;77.90;;;;;;10268743;28;20602;-76
2023/07/18 07:17:57;;;;;;;3.40;3.07;;;23.20;76.50;;;;;;10267774;28;20685;-76
2023/07/18 07:22:59;;;;;;;3.90;3.47;;;23.50;74.30;;;;;;10268856;28;20651;-76
2023/07/18 07:28:04;;;;;;;5.97;3.97;;;23.80;75.50;;;;;;10276644;28;20205;-76
2023/07/18 07:33:06;;;;;;;3.50;3.20;;;24.10;75.20;;;;;;10262395;28;20231;-76
2023/07/18 07:38:08;;;;;;;3.20;3.00;;;24.40;72.70;;;;;;10277765;28;20358;-77
2023/07/18 07:43:12;;;;;;;5.27;2.73;;;24.80;73.70;;;;;;10277450;28;20311;-77
2023/07/18 07:48:14;;;;;;;3.57;3.20;;;25.20;73.40;;;;;;10277122;28;20643;-78
2023/07/18 07:53:16;;;;;;;4.73;2.60;;;25.70;70.20;;;;;;10313619;23;20238;-77
2023/07/18 07:58:20;;;;;;;3.37;3.07;;;26.10;69.40;;;;;;10325784;28;20227;-78
2023/07/18 08:03:22;;;;;;;2.60;2.40;;;26.50;66.80;;;;;;10305708;28;20229;-77
2023/07/18 08:08:25;;;;;;;3.13;2.57;;;26.90;65.80;;;;;;10284477;28;20628;-77
2023/07/18 08:13:28;;;;;;;4.70;3.10;;;27.30;64.60;;;;;;10285614;28;20286;-77
2023/07/18 08:18:30;;;;;;;3.43;2.60;;;27.80;63.90;;;;;;10284211;28;20248;-78
2023/07/18 08:23:32;;;;;;;2.60;2.47;;;28.30;63.00;;;;;;10300035;28;20247;-77
2023/07/18 08:28:36;;;;;;;2.77;2.53;;;28.70;59.80;;;;;;10283645;28;20228;-77
2023/07/18 08:33:38;;;;;;;3.10;2.80;;;29.10;59.00;;;;;;10285485;28;20728;-77
2023/07/18 08:38:43;;;;;;;2.87;2.63;;;29.50;59.30;;;;;;10288209;28;20228;-78
2023/07/18 08:43:47;;;;;;;3.60;2.90;;;29.80;58.00;;;;;;10284166;28;20668;-78
2023/07/18 08:48:49;;;;;;;2.90;2.60;;;30.00;58.80;;;;;;10284061;28;20204;-78
2023/07/18 08:53:51;;;;;;;7.40;3.67;;;30.20;58.60;;;;;;10294727;28;20236;-77
2023/07/18 08:58:57;;;;;;;4.10;2.97;;;30.30;58.40;;;;;;10295661;28;20260;-76
2023/07/18 09:04:00;;;;;;;3.77;2.97;;;30.40;55.80;;;;;;10298528;28;20228;-76
2023/07/18 09:09:02;;;;;;;3.20;2.90;;;30.50;56.50;;;;;;10291595;28;20331;-76
2023/07/18 09:14:06;;;;;;;3.17;2.40;;;30.70;57.10;;;;;;10284848;28;20224;-76
2023/07/18 09:19:08;;;;;;;4.50;3.10;;;30.90;55.80;;;;;;10283264;28;20241;-78
2023/07/18 09:24:10;;;;;;;2.43;2.33;;;30.90;55.00;;;;;;10280810;28;20313;-77
2023/07/18 09:29:13;;;;;;;2.67;2.40;;;31.10;55.60;;;;;;10280712;28;20315;-78
2023/07/18 09:34:18;;;;;;;2.80;2.60;;;31.20;55.40;;;;;;10281658;28;20227;-78
2023/07/18 09:39:21;;;;;;;2.97;2.77;;;31.50;55.30;;;;;;10282250;28;20608;-78
2023/07/18 09:44:28;;;;;;;3.73;2.80;;;31.80;54.90;;;;;;10281175;28;20224;-78
2023/07/18 09:49:30;;;;;;;2.53;2.30;;;32.00;54.00;;;;;;10280838;28;20227;-78
2023/07/18 09:54:33;;;;;;;2.77;2.57;;;32.30;53.30;;;;;;10279781;28;20271;-78
2023/07/18 09:59:38;;;;;;;3.53;3.00;;;32.80;53.90;;;;;;10281083;28;20224;-78
2023/07/18 10:04:40;;;;;;;4.93;3.17;;;33.10;51.90;;;;;;10280523;28;20228;-77
2023/07/18 10:09:42;;;;;;;4.70;3.00;;;33.00;51.40;;;;;;10282704;28;20204;-77
2023/07/18 10:14:57;;;;;;;2.50;2.30;;;32.80;52.40;;;;;;10277536;28;20231;-77
2023/07/18 10:19:59;;;;;;;2.73;2.50;;;32.30;53.60;;;;;;10276150;28;20236;-77
2023/07/18 10:25:05;;;;;;;3.00;2.70;;;31.50;53.60;;;;;;10275605;28;20649;-78
2023/07/18 10:30:11;;;;;;;5.07;2.90;;;30.80;54.50;;;;;;10274673;28;20303;-77
2023/07/18 10:35:14;;;;;;;4.80;3.20;;;30.00;55.70;;;;;;10275714;28;20227;-74
2023/07/18 10:40:33;;;;;;;3.63;3.23;;;29.40;56.50;;;;;;10274593;28;20373;-77
2023/07/18 10:45:42;;;;;;;3.80;3.17;;;28.80;57.50;;;;;;10274951;28;20296;-78
2023/07/18 10:50:45;;;;;;;3.30;3.00;;;28.50;59.00;;;;;;10273554;28;20208;-78
2023/07/18 10:55:48;;;;;;;3.40;2.37;;;28.60;60.90;;;;;;10272219;28;20304;-78
2023/07/18 11:00:52;;;;;;;3.00;2.80;;;28.90;60.00;;;;;;10273862;28;20319;-77
2023/07/18 11:05:54;;;;;;;4.70;3.03;;;29.00;61.10;;;;;;10274568;28;20235;-78
2023/07/18 11:10:58;;;;;;;5.10;3.37;;;29.20;60.50;;;;;;10274574;28;20351;-77
2023/07/18 11:16:05;;;;;;;3.47;3.17;;;29.30;58.00;;;;;;10274087;28;20311;-77
2023/07/18 11:21:08;;;;;;;4.83;3.30;;;29.10;58.60;;;;;;10289474;28;20224;-77
2023/07/18 11:26:13;;;;;;;3.20;3.00;;;28.70;58.90;;;;;;10273874;28;20224;-77
2023/07/18 11:31:27;;;;;;;3.53;2.70;;;28.40;60.80;;;;;;10274382;28;20208;-78
2023/07/18 11:36:30;;;;;;;3.90;3.53;;;28.10;61.60;;;;;;10273097;28;21155;-78
2023/07/18 11:41:34;;;;;;;4.87;3.43;;;27.90;62.20;;;;;;10274418;28;20283;-77
2023/07/18 11:46:39;;;;;;;3.50;3.20;;;27.70;62.40;;;;;;10273147;28;20850;-76
2023/07/18 11:51:41;;;;;;;4.20;3.17;;;27.50;65.00;;;;;;10275575;28;21032;-76
2023/07/18 11:56:43;;;;;;;5.93;3.23;;;27.30;66.00;;;;;;10271396;28;20930;-77
2023/07/18 12:01:47;;;;;;;4.20;3.80;;;27.10;70.60;;;;;;10286939;28;20641;-77
2023/07/18 12:06:49;;;;;;;4.93;3.23;;;27.00;72.30;;;;;;10265352;28;20695;-76
2023/07/18 12:11:54;;;;;;;4.73;3.33;;;27.10;72.30;;;;;;10277353;28;20247;-77
2023/07/18 12:16:57;;;;;;;3.70;3.40;;;27.20;69.00;;;;;;10293627;28;20205;-77
2023/07/18 12:21:59;;;;;;;4.20;3.30;;;27.30;71.40;;;;;;10278581;28;20298;-77
2023/07/18 12:27:01;;;;;;;4.07;3.67;;;27.50;70.20;;;;;;10278492;28;20632;-77
2023/07/18 12:32:06;;;;;;;3.60;3.30;;;27.60;71.40;;;;;;10279345;28;20709;-76
2023/07/18 12:37:09;;;;;;;4.27;3.10;;;27.80;70.00;;;;;;10278307;28;20209;-76
2023/07/18 12:42:11;;;;;;;3.27;2.97;;;28.10;70.70;;;;;;10277368;28;21079;-76
2023/07/18 12:47:14;;;;;;;3.13;2.93;;;28.10;67.70;;;;;;10272852;28;20215;-76
2023/07/18 12:52:17;;;;;;;4.23;3.00;;;28.10;66.60;;;;;;10276749;28;20606;-77
2023/07/18 12:57:19;;;;;;;3.90;3.50;;;28.20;67.10;;;;;;10277396;28;20205;-77
2023/07/18 13:02:22;;;;;;;4.17;3.87;;;28.20;68.40;;;;;;10276747;28;21107;-77
2023/07/18 13:07:24;;;;;;;5.73;3.00;;;28.30;65.00;;;;;;10277274;28;20739;-77
2023/07/18 13:12:29;;;;;;;5.47;3.20;;;28.30;63.90;;;;;;10279861;28;20380;-77
2023/07/18 13:17:33;;;;;;;4.60;3.40;;;28.30;65.60;;;;;;10279242;28;20209;-77
2023/07/18 13:22:35;;;;;;;3.47;3.20;;;28.40;65.10;;;;;;10276184;28;20232;-77
2023/07/18 13:27:37;;;;;;;4.00;3.03;;;28.30;65.40;;;;;;10275520;28;20217;-77
2023/07/18 13:32:40;;;;;;;3.50;3.20;;;28.20;64.10;;;;;;10276322;28;20224;-76
2023/07/18 13:37:43;;;;;;;3.60;3.27;;;28.20;65.70;;;;;;10275280;28;20204;-77
2023/07/18 13:42:45;;;;;;;2.90;2.70;;;28.30;66.90;;;;;;10276132;28;20713;-77
2023/07/18 13:47:48;;;;;;;3.33;3.00;;;28.30;66.20;;;;;;10275156;28;20624;-79
2023/07/18 13:52:58;;;;;;;3.60;3.00;;;28.10;64.20;;;;;;10307851;23;20334;-82
2023/07/18 13:58:08;;;;;;;4.10;3.60;;;28.00;66.00;;;;;;10343612;28;20204;-82
2023/07/18 14:03:19;;;;;;;5.10;3.60;;;27.80;64.80;;;;;;10338303;28;20236;-82
2023/07/18 14:08:26;;;;;;;4.13;3.83;;;27.70;67.80;;;;;;10312798;28;20254;-82
2023/07/18 14:13:43;;;;;;;3.83;3.03;;;27.70;68.20;;;;;;10321557;28;20255;-82
2023/07/18 14:18:56;;;;;;;3.90;3.30;;;27.90;68.80;;;;;;10308733;28;20199;-82
2023/07/18 14:23:58;;;;;;;4.43;4.03;;;27.90;67.00;;;;;;10316349;28;20223;-80
2023/07/18 14:29:00;;;;;;;3.97;3.67;;;28.00;69.10;;;;;;10314968;28;20854;-80
2023/07/18 14:34:03;;;;;;;4.73;4.20;;;28.10;68.50;;;;;;10313617;28;20263;-80
2023/07/18 14:39:06;;;;;;;3.50;3.20;;;28.10;69.20;;;;;;10313888;28;20234;-80
2023/07/18 14:44:08;;;;;;;4.00;3.50;;;28.10;71.70;;;;;;10298828;28;20344;-83
2023/07/18 14:49:12;;;;;;;4.77;4.27;;;28.20;68.70;;;;;;10310511;28;20200;-82
2023/07/18 14:54:16;;;;;;;6.53;3.80;;;28.20;67.90;;;;;;10300355;28;20240;-82
2023/07/18 14:59:18;;;;;;;4.30;3.90;;;28.20;67.80;;;;;;10293933;28;20252;-81
2023/07/18 15:04:24;;;;;;;4.03;3.63;;;28.10;69.00;;;;;;10290402;28;20335;-81
2023/07/18 15:09:26;;;;;;;4.10;3.80;;;28.10;66.60;;;;;;10311782;28;20592;-83
2023/07/18 15:14:28;;;;;;;4.03;3.40;;;28.00;68.50;;;;;;10273594;28;21223;-84
2023/07/18 15:19:32;;;;;;;5.83;3.77;;;27.90;67.90;;;;;;10294204;28;20279;-81
2023/07/18 15:24:34;;;;;;;4.40;3.40;;;27.90;68.00;;;;;;10308500;28;20235;-81
2023/07/18 15:29:36;;;;;;;4.90;3.33;;;27.80;67.80;;;;;;10313740;28;20292;-81
2023/07/18 15:34:39;;;;;;;5.57;3.60;;;27.60;69.40;;;;;;10316541;28;20238;-82
2023/07/18 15:39:41;;;;;;;4.63;3.60;;;27.50;69.30;;;;;;10307429;28;20270;-80
2023/07/18 15:44:43;;;;;;;4.47;4.07;;;27.30;68.10;;;;;;10308574;28;20279;-83
2023/07/18 15:49:47;;;;;;;4.30;3.90;;;27.20;68.50;;;;;;10290471;28;20205;-83
2023/07/18 15:54:49;;;;;;;3.90;3.60;;;27.10;71.50;;;;;;10312939;28;20263;-82
2023/07/18 15:59:51;;;;;;;4.13;3.73;;;27.00;70.40;;;;;;10312262;28;20215;-81
2023/07/18 16:04:54;;;;;;;4.77;3.80;;;27.00;69.60;;;;;;10297803;28;20225;-81
2023/07/18 16:09:57;;;;;;;4.20;3.80;;;26.90;69.90;;;;;;10284538;28;20193;-82
2023/07/18 16:15:00;;;;;;;4.90;4.50;;;26.90;73.70;;;;;;10325055;28;20248;-82
2023/07/18 16:20:04;;;;;;;4.50;4.10;;;26.90;70.00;;;;;;10322847;28;20263;-82
2023/07/18 16:38:45;;;;;;;4.53;4.17;;;26.80;71.30;;;;;;10154123;28;20210;-80
2023/07/18 16:56:02;;;;;;;;;;;;;;;;;;;;;
2023/07/18 17:02:00;;;;;;;;;;;;;;;;;;;;;
2023/07/18 17:07:19;;;;;;;4.47;3.87;;;26.60;74.90;;;;;;10319223;28;20212;-82
2023/07/18 17:12:23;;;;;;;4.53;4.10;;;26.60;73.00;;;;;;10321262;28;20221;-81
2023/07/18 17:17:27;;;;;;;5.00;4.60;;;26.60;73.10;;;;;;10315936;28;20216;-82
2023/07/18 17:22:29;;;;;;;4.97;3.83;;;26.70;72.80;;;;;;10315697;28;20224;-82
2023/07/18 17:27:31;;;;;;;5.63;4.30;;;26.70;73.20;;;;;;10319172;28;20212;-82
2023/07/18 17:32:35;;;;;;;6.40;5.10;;;26.60;73.10;;;;;;10321255;28;20236;-79
2023/07/18 17:37:39;;;;;;;4.87;4.47;;;26.60;74.60;;;;;;10319244;28;20204;-80
2023/07/18 17:42:43;;;;;;;8.27;3.77;;;26.50;73.50;;;;;;10320338;28;20282;-81
2023/07/18 17:47:47;;;;;;;6.20;5.10;;;26.40;74.50;;;;;;10309826;28;21051;-81
2023/07/18 17:52:49;;;;;;;5.10;4.70;;;26.40;75.20;;;;;;10321153;28;20224;-81
2023/07/18 17:57:51;;;;;;;6.57;4.70;;;26.30;77.00;;;;;;10314613;28;20205;-80
2023/07/18 18:09:09;;;;;;;5.40;4.90;;;25.90;87.80;;;;;;10246946;28;20250;-82
2023/07/18 18:15:10;;;;;;;5.23;4.63;;;25.80;87.20;;;;;;10304865;28;20222;-80
2023/07/18 18:20:33;;;;;;;5.50;4.77;;;25.60;85.50;;;;;;10312792;28;20228;-81
2023/07/18 18:25:54;;;;;;;8.30;7.40;;;25.40;85.70;;;;;;10314843;28;20239;-81
2023/07/18 18:30:56;;;;;;;6.50;5.37;;;25.30;86.90;;;;;;10316594;28;20323;-79
2023/07/18 18:36:00;;;;;;;8.60;5.30;;;25.20;86.70;;;;;;10315655;28;20271;-80
2023/07/18 18:41:04;;;;;;;5.30;4.77;;;25.10;87.20;;;;;;10312326;28;20227;-81
2023/07/18 18:46:06;;;;;;;5.30;4.80;;;25.00;87.40;;;;;;10315477;28;20912;-80
2023/07/18 18:51:11;;;;;;;7.00;6.30;;;24.90;88.30;;;;;;10319196;28;20910;-81
2023/07/18 18:56:13;;;;;;;7.60;5.20;;;24.90;88.30;;;;;;10319687;28;20255;-80
2023/07/18 19:01:15;;;;;;;5.87;5.37;;;24.90;87.50;;;;;;10316883;28;20707;-80
2023/07/18 19:06:18;;;;;;;8.00;5.87;;;24.90;90.00;;;;;;10327064;28;20223;-80
2023/07/18 19:11:20;;;;;;;8.20;7.40;;;24.70;93.20;;;;;;10317833;28;20219;-80
2023/07/18 19:16:23;;;;;;;8.27;6.37;;;24.40;94.90;;;;;;10319015;28;20239;-81
2023/07/18 19:21:26;;;;;;;8.53;6.87;;;24.20;94.30;;;;;;10318015;28;20845;-81
2023/07/18 19:26:28;;;;;;;9.23;8.23;;;24.00;94.60;;;;;;10312540;28;20315;-79
2023/07/18 19:31:30;;;;;;;12.87;11.97;;;23.80;96.10;;;;;;10314324;28;20239;-80
2023/07/18 19:36:34;;;;;;;13.10;12.10;;;23.50;98.60;;;;;;10314293;28;20228;-81
2023/07/18 19:41:37;;;;;;;14.00;13.10;;;23.10;99.90;;;;;;10301896;28;20236;-83
2023/07/18 19:46:39;;;;;;;12.93;11.93;;;22.80;99.90;;;;;;10290608;28;20774;-83
2023/07/18 19:51:42;;;;;;;13.07;11.83;;;22.30;99.90;;;;;;10296393;28;20264;-82
2023/07/18 19:56:45;;;;;;;12.20;11.20;;;21.90;99.90;;;;;;10303969;23;20637;-79
2023/07/18 20:01:47;;;;;;;12.20;11.40;;;21.80;99.90;;;;;;10273493;28;20291;-81
2023/07/18 20:06:51;;;;;;;12.40;11.47;;;21.80;99.90;;;;;;10269024;28;20236;-78
2023/07/18 20:11:53;;;;;;;12.17;11.17;;;21.90;99.90;;;;;;10272614;28;20288;-79
2023/07/18 20:16:56;;;;;;;12.83;11.67;;;21.90;99.90;;;;;;10271354;28;20220;-78
2023/07/18 20:21:59;;;;;;;12.00;11.13;;;22.00;99.90;;;;;;10264836;28;20307;-79
2023/07/18 20:27:01;;;;;;;13.07;12.13;;;22.00;99.90;;;;;;10271588;28;20708;-77
2023/07/18 20:32:04;;;;;;;10.90;10.10;;;22.10;99.90;;;;;;10275692;28;20583;-78
2023/07/18 20:37:08;;;;;;;10.67;9.67;;;22.20;99.90;;;;;;10277875;28;20229;-78
2023/07/18 20:42:10;;;;;;;9.60;8.80;;;22.20;99.90;;;;;;10274701;28;20239;-78
2023/07/18 20:47:12;;;;;;;9.30;8.53;;;22.10;99.90;;;;;;10273634;28;20742;-78
2023/07/18 20:52:15;;;;;;;10.23;9.33;;;21.90;99.90;;;;;;10278442;28;20673;-78
2023/07/18 20:57:17;;;;;;;9.00;7.70;;;21.80;99.90;;;;;;10282843;28;20323;-78
2023/07/18 21:02:19;;;;;;;8.90;8.20;;;21.70;99.90;;;;;;10280713;28;20338;-78
2023/07/18 21:07:23;;;;;;;8.17;7.47;;;21.70;99.90;;;;;;10279775;28;20228;-78
2023/07/18 21:12:25;;;;;;;8.20;7.53;;;21.70;99.90;;;;;;10280140;28;20220;-78
2023/07/18 21:17:27;;;;;;;7.27;6.60;;;21.70;99.90;;;;;;10278810;28;20600;-78
2023/07/18 21:22:30;;;;;;;6.37;5.87;;;21.60;99.90;;;;;;10280753;28;20696;-78
2023/07/18 21:27:32;;;;;;;6.83;6.33;;;21.50;99.90;;;;;;10280448;28;20345;-77
2023/07/18 21:32:35;;;;;;;6.07;5.57;;;21.50;99.90;;;;;;10278984;28;20196;-78
2023/07/18 21:37:38;;;;;;;6.53;5.90;;;21.40;99.90;;;;;;10278380;28;20235;-77
2023/07/18 21:42:40;;;;;;;6.87;6.37;;;21.30;99.90;;;;;;10278512;28;20221;-77
2023/07/18 21:47:42;;;;;;;5.70;5.30;;;21.20;99.90;;;;;;10277516;28;20794;-78
2023/07/18 21:52:46;;;;;;;5.03;4.63;;;21.20;99.90;;;;;;10276957;28;20212;-79
2023/07/18 21:57:48;;;;;;;5.80;5.20;;;21.10;99.90;;;;;;10279078;28;20205;-77
2023/07/18 22:02:50;;;;;;;5.87;5.30;;;21.10;99.90;;;;;;10277388;28;20263;-77
2023/07/18 22:07:53;;;;;;;4.70;4.27;;;21.10;99.90;;;;;;10277203;28;20215;-78
2023/07/18 22:12:55;;;;;;;6.00;5.20;;;21.10;99.90;;;;;;10278577;28;20255;-78
2023/07/18 22:17:58;;;;;;;5.53;5.13;;;21.10;99.90;;;;;;10277230;28;20755;-77
2023/07/18 22:23:01;;;;;;;6.03;5.40;;;21.00;99.90;;;;;;10277111;28;20774;-77
2023/07/18 22:28:04;;;;;;;5.03;4.73;;;21.00;99.90;;;;;;10275503;28;20227;-78
2023/07/18 22:33:06;;;;;;;5.87;5.10;;;21.10;99.90;;;;;;10275426;28;20244;-77
2023/07/18 22:38:09;;;;;;;5.13;4.73;;;21.10;99.90;;;;;;10275401;28;20933;-78
2023/07/18 22:43:12;;;;;;;4.90;4.50;;;21.20;99.90;;;;;;10275308;28;20228;-77
2023/07/18 22:48:14;;;;;;;6.67;5.97;;;21.30;99.90;;;;;;10287162;28;20676;-77
2023/07/18 22:53:17;;;;;;;5.90;5.30;;;21.40;99.90;;;;;;10274563;28;20719;-78
2023/07/18 22:58:19;;;;;;;5.50;5.10;;;21.50;99.90;;;;;;10276132;28;20224;-77
2023/07/18 23:03:21;;;;;;;5.63;5.13;;;21.50;99.90;;;;;;10275302;28;20710;-77
2023/07/18 23:08:25;;;;;;;6.00;5.40;;;21.50;99.90;;;;;;10275720;28;20217;-78
2023/07/18 23:13:27;;;;;;;5.40;4.90;;;21.50;99.90;;;;;;10275045;28;20308;-78
2023/07/18 23:18:29;;;;;;;5.07;4.57;;;21.50;99.90;;;;;;10274929;28;20212;-78
2023/07/18 23:23:32;;;;;;;7.60;5.83;;;21.50;99.90;;;;;;10275556;28;20247;-77
2023/07/18 23:28:34;;;;;;;6.10;5.23;;;21.50;99.90;;;;;;10274481;28;20232;-77
2023/07/18 23:33:36;;;;;;;7.00;5.60;;;21.40;99.90;;;;;;10274420;28;20299;-78
2023/07/18 23:38:40;;;;;;;6.00;5.40;;;21.40;99.90;;;;;;10274637;28;20201;-78
2023/07/18 23:43:42;;;;;;;5.87;5.27;;;21.40;99.90;;;;;;10269788;28;20228;-77
2023/07/18 23:48:44;;;;;;;5.90;5.27;;;21.30;99.90;;;;;;10273904;28;20209;-77
2023/07/18 23:53:48;;;;;;;6.57;5.97;;;21.30;99.90;;;;;;10273602;28;20311;-78
2023/07/18 23:58:50;;;;;;;5.63;5.23;;;21.30;99.90;;;;;;10267301;28;20228;-78
